Time;durP1;ratioP1;P1;durP2;ratioP2;P2;SDS_P1;SDS_P2;PMS_P1;PMS_P2;Temp;Humidity;BMP_temperature;BMP_pressure;BME280_temperature;BME280_humidity;BME280_pressure;Samples;Min_cycle;Max_cycle;Signal;HPM_P1;HPM_P2
2023/07/18 00:02:06;;;;;;;1.57;1.47;;;24.60;93.30;;;;;;4936518;29;20493;-88
2023/07/18 00:04:34;;;;;;;1.60;1.50;;;24.60;93.30;;;;;;4936643;29;20451;-88
2023/07/18 00:07:01;;;;;;;1.60;1.50;;;24.70;93.50;;;;;;4936320;29;20454;-90
2023/07/18 00:09:28;;;;;;;2.07;1.50;;;24.60;93.50;;;;;;4937135;29;20446;-88
2023/07/18 00:11:56;;;;;;;2.20;1.53;;;24.60;93.40;;;;;;4937078;29;20548;-89
2023/07/18 00:14:24;;;;;;;1.57;1.47;;;24.70;93.40;;;;;;4936603;29;20462;-89
2023/07/18 00:16:50;;;;;;;1.40;1.30;;;24.60;93.50;;;;;;4936650;29;20446;-89
2023/07/18 00:19:19;;;;;;;1.83;1.47;;;24.70;93.60;;;;;;4936461;29;20469;-89
2023/07/18 00:21:48;;;;;;;1.40;1.20;;;24.70;93.50;;;;;;4936314;29;20543;-88
2023/07/18 00:24:15;;;;;;;2.20;1.33;;;24.60;93.50;;;;;;4936785;29;20513;-89
2023/07/18 00:26:41;;;;;;;1.60;1.30;;;24.70;93.50;;;;;;4954436;29;20547;-89
2023/07/18 00:29:09;;;;;;;1.90;1.80;;;24.60;93.50;;;;;;4955663;29;20529;-89
2023/07/18 00:31:36;;;;;;;1.80;1.70;;;24.80;93.60;;;;;;4955157;29;20457;-91
2023/07/18 00:34:03;;;;;;;2.47;1.50;;;24.70;93.60;;;;;;4955626;29;20454;-89
2023/07/18 00:36:30;;;;;;;1.60;1.50;;;24.70;93.70;;;;;;4955613;29;20453;-89
2023/07/18 00:38:58;;;;;;;1.70;1.50;;;24.60;93.80;;;;;;4955328;29;20789;-88
2023/07/18 00:41:25;;;;;;;1.73;1.63;;;24.60;93.70;;;;;;4953668;29;20517;-90
2023/07/18 00:43:52;;;;;;;1.77;1.50;;;24.60;93.60;;;;;;4936182;29;20507;-89
2023/07/18 00:46:19;;;;;;;1.93;1.43;;;24.60;93.60;;;;;;4935933;29;20443;-90
2023/07/18 00:48:46;;;;;;;1.70;1.47;;;24.60;93.80;;;;;;4936336;29;20494;-88
2023/07/18 00:51:13;;;;;;;1.67;1.57;;;24.60;93.80;;;;;;4936440;29;20449;-88
2023/07/18 00:53:40;;;;;;;1.70;1.60;;;24.70;93.80;;;;;;4936095;29;20485;-88
2023/07/18 00:56:09;;;;;;;2.70;1.73;;;24.60;93.50;;;;;;4936141;29;20516;-89
2023/07/18 00:58:36;;;;;;;1.83;1.67;;;24.60;93.60;;;;;;4936000;29;20537;-88
2023/07/18 01:01:04;;;;;;;1.53;1.30;;;24.60;93.40;;;;;;4935845;29;20459;-89
2023/07/18 01:03:31;;;;;;;1.80;1.60;;;24.60;93.50;;;;;;4936021;29;20581;-89
2023/07/18 01:05:58;;;;;;;1.20;1.10;;;24.60;93.40;;;;;;4935870;29;20456;-90
2023/07/18 01:08:24;;;;;;;1.53;1.43;;;24.60;93.40;;;;;;4936253;29;20530;-89
2023/07/18 01:10:51;;;;;;;1.70;1.50;;;24.60;93.40;;;;;;4935643;29;20446;-89
2023/07/18 01:13:20;;;;;;;1.70;1.60;;;24.60;93.40;;;;;;4935620;29;20447;-89
2023/07/18 01:15:47;;;;;;;1.70;1.40;;;24.60;93.50;;;;;;4946595;29;20458;-88
2023/07/18 01:18:14;;;;;;;1.93;1.40;;;24.60;93.30;;;;;;4954691;28;20442;-88
2023/07/18 01:20:44;;;;;;;2.17;1.50;;;24.60;93.30;;;;;;4957704;29;20525;-89
2023/07/18 01:23:13;;;;;;;1.80;1.40;;;24.60;93.20;;;;;;4958305;29;20492;-89
2023/07/18 01:25:41;;;;;;;1.60;1.40;;;24.60;93.20;;;;;;4958734;29;20582;-89
2023/07/18 01:28:08;;;;;;;2.10;1.80;;;24.60;93.20;;;;;;4958856;29;20448;-89
2023/07/18 01:30:35;;;;;;;1.50;1.40;;;24.60;93.30;;;;;;4958341;29;20531;-88
2023/07/18 01:33:02;;;;;;;1.50;1.30;;;24.60;93.30;;;;;;4958600;29;20541;-88
2023/07/18 01:35:29;;;;;;;2.13;1.30;;;24.60;93.30;;;;;;4958568;29;20485;-89
2023/07/18 01:37:57;;;;;;;1.57;1.37;;;24.60;93.40;;;;;;4957920;29;20453;-89
2023/07/18 01:40:26;;;;;;;1.50;1.40;;;24.60;93.30;;;;;;4959026;29;20541;-88
2023/07/18 01:42:55;;;;;;;1.77;1.63;;;24.60;93.40;;;;;;4958905;29;20530;-88
2023/07/18 01:45:23;;;;;;;1.77;1.67;;;24.60;93.40;;;;;;4958412;29;20968;-89
2023/07/18 01:47:51;;;;;;;2.00;1.60;;;24.60;93.30;;;;;;4958261;29;20544;-89
2023/07/18 01:50:18;;;;;;;1.37;1.27;;;24.60;93.40;;;;;;4958858;28;21056;-88
2023/07/18 01:52:46;;;;;;;1.70;1.43;;;24.60;93.40;;;;;;4959592;29;20457;-90
2023/07/18 01:55:15;;;;;;;1.80;1.70;;;24.60;93.40;;;;;;4958473;29;20444;-92
2023/07/18 01:57:47;;;;;;;1.57;1.47;;;24.60;93.40;;;;;;4958853;29;20920;-95
2023/07/18 02:00:18;;;;;;;1.40;1.23;;;24.60;93.40;;;;;;4959711;29;20461;-90
2023/07/18 02:02:47;;;;;;;1.70;1.53;;;24.60;93.50;;;;;;4958325;29;20518;-89
2023/07/18 02:05:16;;;;;;;1.50;1.40;;;24.60;93.30;;;;;;4958327;29;20481;-96
2023/07/18 02:07:43;;;;;;;1.60;1.50;;;24.60;93.30;;;;;;4958887;29;20442;-95
2023/07/18 02:10:10;;;;;;;1.60;1.50;;;24.60;93.50;;;;;;4958123;29;20843;-90
2023/07/18 02:12:37;;;;;;;2.33;1.50;;;24.60;93.10;;;;;;4958004;29;20463;-89
2023/07/18 02:15:06;;;;;;;1.90;1.50;;;24.50;93.00;;;;;;4958942;29;20452;-92
2023/07/18 02:17:34;;;;;;;1.50;1.40;;;24.60;93.10;;;;;;4958459;29;20452;-93
2023/07/18 02:20:05;;;;;;;1.50;1.30;;;24.60;93.20;;;;;;4958524;28;20465;-89
2023/07/18 02:22:33;;;;;;;1.73;1.63;;;24.50;93.10;;;;;;4958357;29;21060;-94
2023/07/18 02:25:00;;;;;;;1.67;1.30;;;24.50;93.00;;;;;;4958722;29;20451;-89
2023/07/18 02:27:27;;;;;;;1.73;1.43;;;24.50;93.00;;;;;;4958242;29;20452;-89
2023/07/18 02:29:54;;;;;;;1.70;1.57;;;24.50;93.00;;;;;;4957507;28;20450;-89
2023/07/18 02:32:22;;;;;;;1.50;1.30;;;24.60;93.00;;;;;;4957606;29;20878;-95
2023/07/18 02:34:49;;;;;;;1.50;1.40;;;24.50;93.00;;;;;;4957628;29;20520;-90
2023/07/18 02:37:16;;;;;;;1.70;1.37;;;24.50;93.10;;;;;;4957971;29;20439;-88
2023/07/18 02:39:44;;;;;;;1.63;1.53;;;24.50;93.10;;;;;;4958563;29;20449;-89
2023/07/18 02:42:11;;;;;;;1.70;1.40;;;24.50;93.10;;;;;;4957609;29;20449;-89
2023/07/18 02:44:38;;;;;;;1.40;1.30;;;24.50;93.00;;;;;;4958373;29;20448;-88
2023/07/18 02:47:05;;;;;;;1.53;1.30;;;24.50;93.10;;;;;;4957639;29;20529;-88
2023/07/18 02:49:34;;;;;;;1.50;1.37;;;24.50;93.00;;;;;;4958311;28;20463;-89
2023/07/18 02:52:00;;;;;;;1.63;1.40;;;24.60;93.10;;;;;;4957464;29;20457;-89
2023/07/18 02:54:27;;;;;;;1.83;1.43;;;24.60;93.20;;;;;;4956766;29;20963;-89
2023/07/18 02:56:54;;;;;;;1.70;1.40;;;24.50;93.20;;;;;;4957168;29;20442;-90
2023/07/18 02:59:21;;;;;;;1.33;1.23;;;24.50;93.10;;;;;;4957146;29;20442;-89
2023/07/18 03:01:49;;;;;;;2.33;1.50;;;24.50;93.10;;;;;;4958111;29;20452;-89
2023/07/18 03:04:16;;;;;;;1.53;1.37;;;24.70;93.30;;;;;;4956991;29;20914;-88
2023/07/18 03:06:45;;;;;;;1.53;1.43;;;24.50;93.10;;;;;;4957528;29;20458;-89
2023/07/18 03:09:12;;;;;;;1.47;1.30;;;24.50;93.20;;;;;;4957444;29;20507;-88
2023/07/18 03:11:38;;;;;;;3.00;1.50;;;24.50;93.20;;;;;;4957611;29;20946;-88
2023/07/18 03:14:07;;;;;;;2.67;1.33;;;24.50;93.20;;;;;;4957769;29;20550;-89
2023/07/18 03:16:34;;;;;;;1.50;1.40;;;24.50;93.10;;;;;;4957506;29;20525;-89
2023/07/18 03:19:01;;;;;;;2.47;1.63;;;24.50;93.20;;;;;;4957086;28;20564;-88
2023/07/18 03:21:27;;;;;;;1.43;1.33;;;24.50;93.10;;;;;;4957929;29;20446;-89
2023/07/18 03:23:56;;;;;;;1.53;1.43;;;24.50;93.20;;;;;;4957127;29;21080;-89
2023/07/18 03:26:22;;;;;;;1.40;1.30;;;24.50;93.10;;;;;;4957381;29;20458;-88
2023/07/18 03:28:49;;;;;;;1.47;1.30;;;24.50;93.20;;;;;;4956154;29;20453;-89
2023/07/18 03:31:16;;;;;;;1.57;1.40;;;24.50;93.20;;;;;;4956555;29;20441;-88
2023/07/18 03:33:43;;;;;;;1.50;1.40;;;24.50;93.20;;;;;;4956506;29;20507;-89
2023/07/18 03:36:09;;;;;;;1.70;1.60;;;24.50;93.20;;;;;;4956029;29;20458;-89
2023/07/18 03:38:36;;;;;;;1.60;1.50;;;24.50;93.10;;;;;;4956596;29;20453;-89
2023/07/18 03:41:04;;;;;;;2.13;1.27;;;24.50;93.20;;;;;;4956580;28;20445;-89
2023/07/18 03:43:31;;;;;;;1.50;1.40;;;24.50;93.10;;;;;;4955395;29;20509;-88
2023/07/18 03:45:58;;;;;;;1.60;1.50;;;24.50;93.10;;;;;;4941992;29;20815;-88
2023/07/18 03:48:26;;;;;;;1.50;1.40;;;24.50;93.10;;;;;;4936658;29;20503;-89
2023/07/18 03:50:53;;;;;;;1.53;1.40;;;24.50;93.10;;;;;;4950489;29;20456;-89
2023/07/18 03:53:20;;;;;;;1.80;1.70;;;24.50;93.10;;;;;;4956318;29;20450;-89
2023/07/18 03:55:47;;;;;;;2.23;1.67;;;24.50;93.10;;;;;;4956462;29;20449;-89
2023/07/18 03:58:15;;;;;;;2.00;1.80;;;24.50;93.00;;;;;;4956431;29;20524;-88
2023/07/18 04:00:42;;;;;;;1.40;1.30;;;24.50;93.10;;;;;;4946475;29;20980;-90
2023/07/18 04:03:12;;;;;;;1.43;1.33;;;24.50;93.10;;;;;;4936722;29;20574;-88
2023/07/18 04:05:39;;;;;;;1.87;1.77;;;24.50;93.30;;;;;;4939435;29;20514;-95
2023/07/18 04:08:06;;;;;;;1.33;1.23;;;24.50;93.10;;;;;;4939569;29;20465;-90
2023/07/18 04:10:34;;;;;;;1.93;1.83;;;24.50;93.00;;;;;;4940605;29;20505;-89
2023/07/18 04:13:00;;;;;;;1.50;1.40;;;24.50;93.10;;;;;;4956300;29;20481;-89
2023/07/18 04:15:29;;;;;;;2.03;1.70;;;24.50;93.20;;;;;;4955620;29;20457;-91
2023/07/18 04:17:55;;;;;;;2.20;1.80;;;24.50;93.10;;;;;;4955524;28;20528;-89
2023/07/18 04:20:22;;;;;;;1.73;1.63;;;24.50;92.90;;;;;;4955610;29;21025;-90
2023/07/18 04:22:49;;;;;;;2.13;1.97;;;24.50;93.00;;;;;;4955564;29;20443;-90
2023/07/18 04:25:16;;;;;;;1.80;1.43;;;24.50;92.80;;;;;;4955962;29;20452;-91
2023/07/18 04:27:44;;;;;;;2.67;1.67;;;24.50;93.00;;;;;;4954973;29;20812;-90
2023/07/18 04:30:12;;;;;;;5.43;2.60;;;24.50;92.90;;;;;;4936354;29;20452;-91
2023/07/18 04:32:41;;;;;;;2.70;2.50;;;24.50;92.10;;;;;;4936239;29;20872;-92
2023/07/18 04:35:09;;;;;;;2.53;2.10;;;24.40;91.90;;;;;;4943749;29;20456;-91
2023/07/18 04:37:35;;;;;;;3.37;2.50;;;24.20;91.80;;;;;;4955240;29;20536;-87
2023/07/18 04:40:05;;;;;;;5.03;2.87;;;24.00;91.70;;;;;;4955185;29;20449;-87
2023/07/18 04:42:32;;;;;;;3.33;2.93;;;23.80;91.90;;;;;;4955007;29;20484;-87
2023/07/18 04:44:59;;;;;;;4.80;3.27;;;23.70;92.20;;;;;;4955061;29;20825;-88
2023/07/18 04:47:26;;;;;;;5.13;3.03;;;23.50;92.10;;;;;;4955015;29;20458;-88
2023/07/18 04:49:55;;;;;;;3.40;2.93;;;23.40;92.30;;;;;;4955228;29;20467;-87
2023/07/18 04:52:22;;;;;;;5.00;3.20;;;23.30;92.30;;;;;;4954872;29;20444;-87
2023/07/18 04:54:49;;;;;;;3.90;2.70;;;23.20;92.40;;;;;;4957160;28;20454;-88
2023/07/18 04:57:17;;;;;;;3.20;2.33;;;23.30;92.50;;;;;;4958584;29;20457;-87
2023/07/18 04:59:44;;;;;;;2.80;2.40;;;23.30;92.50;;;;;;4958755;29;20447;-87
2023/07/18 05:02:11;;;;;;;3.43;2.70;;;23.40;92.70;;;;;;4958828;29;20449;-87
2023/07/18 05:04:38;;;;;;;3.67;2.87;;;23.60;92.80;;;;;;4958545;29;20483;-89
2023/07/18 05:07:06;;;;;;;3.80;2.60;;;23.60;92.80;;;;;;4958473;29;20463;-89
2023/07/18 05:09:33;;;;;;;2.73;2.10;;;23.70;92.90;;;;;;4958478;29;20452;-90
2023/07/18 05:12:00;;;;;;;2.43;2.20;;;23.70;93.00;;;;;;4958285;29;20949;-90
2023/07/18 05:14:26;;;;;;;3.33;2.33;;;23.80;93.00;;;;;;4958333;29;20447;-88
2023/07/18 05:16:53;;;;;;;2.37;1.97;;;23.80;93.10;;;;;;4958537;29;20921;-90
2023/07/18 05:19:20;;;;;;;3.43;2.43;;;23.90;93.20;;;;;;4958274;29;20468;-91
2023/07/18 05:21:47;;;;;;;3.47;2.83;;;23.90;92.90;;;;;;4958287;29;20452;-90
2023/07/18 05:24:15;;;;;;;2.90;2.10;;;24.00;93.00;;;;;;4957980;29;21089;-90
2023/07/18 05:26:42;;;;;;;3.93;3.03;;;24.00;93.00;;;;;;4958262;29;20486;-91
2023/07/18 05:29:09;;;;;;;2.87;2.50;;;24.00;92.90;;;;;;4958064;29;20453;-90
2023/07/18 05:31:36;;;;;;;3.50;2.70;;;24.00;92.80;;;;;;4957862;29;20463;-88
2023/07/18 05:34:03;;;;;;;2.73;2.20;;;24.10;92.80;;;;;;4957829;29;20543;-88
2023/07/18 05:36:30;;;;;;;2.57;2.37;;;24.20;93.00;;;;;;4950942;29;20561;-89
2023/07/18 05:38:56;;;;;;;3.20;2.53;;;24.10;92.80;;;;;;4957288;29;20544;-89
2023/07/18 05:41:25;;;;;;;2.80;2.60;;;24.10;92.80;;;;;;4938909;29;20802;-93
2023/07/18 05:43:52;;;;;;;3.20;2.90;;;24.20;92.90;;;;;;4938467;29;20496;-88
2023/07/18 05:46:19;;;;;;;4.43;2.70;;;24.20;92.80;;;;;;4938437;29;20540;-89
2023/07/18 05:48:46;;;;;;;5.57;2.87;;;24.20;93.00;;;;;;4938525;29;20480;-89
2023/07/18 05:51:12;;;;;;;2.70;2.50;;;24.20;92.80;;;;;;4938425;29;20549;-89
2023/07/18 05:53:40;;;;;;;5.53;1.87;;;24.30;92.80;;;;;;4938221;29;20459;-89
2023/07/18 05:56:07;;;;;;;5.90;2.67;;;24.20;92.70;;;;;;4938279;29;20449;-89
2023/07/18 05:58:35;;;;;;;4.60;2.10;;;24.30;93.10;;;;;;4938172;29;20967;-89
2023/07/18 06:01:02;;;;;;;3.00;2.40;;;24.30;93.10;;;;;;4938555;29;20457;-89
2023/07/18 06:03:29;;;;;;;2.23;2.00;;;24.20;93.20;;;;;;4938300;29;20458;-89
2023/07/18 06:05:56;;;;;;;2.73;2.00;;;24.20;93.10;;;;;;4938245;29;20480;-89
2023/07/18 06:08:23;;;;;;;2.27;2.07;;;24.30;93.10;;;;;;4938359;29;20449;-89
2023/07/18 06:10:56;;;;;;;5.53;2.47;;;24.20;93.00;;;;;;4938182;29;20600;-89
2023/07/18 06:13:23;;;;;;;3.40;1.90;;;24.30;93.00;;;;;;4938012;29;20481;-89
2023/07/18 06:15:51;;;;;;;6.60;2.60;;;24.30;93.10;;;;;;4938238;29;20458;-90
2023/07/18 06:18:18;;;;;;;2.30;2.10;;;24.20;92.90;;;;;;4937829;29;20481;-89
2023/07/18 06:20:45;;;;;;;2.70;2.40;;;24.30;93.20;;;;;;4938102;29;20448;-89
2023/07/18 06:23:12;;;;;;;2.60;2.33;;;24.30;92.70;;;;;;4938043;29;20447;-90
2023/07/18 06:25:38;;;;;;;2.67;2.13;;;24.40;92.80;;;;;;4937716;29;20497;-88
2023/07/18 06:28:07;;;;;;;1.70;1.40;;;24.30;92.80;;;;;;4937715;29;20443;-89
2023/07/18 06:30:35;;;;;;;2.30;2.10;;;24.40;92.90;;;;;;4937744;29;20457;-89
2023/07/18 06:33:03;;;;;;;2.27;2.07;;;24.30;93.00;;;;;;4937904;29;20777;-89
2023/07/18 06:35:32;;;;;;;2.90;2.70;;;24.30;92.80;;;;;;4937761;29;20802;-89
2023/07/18 06:37:59;;;;;;;2.20;2.07;;;24.30;92.80;;;;;;4937690;29;20529;-89
2023/07/18 06:40:25;;;;;;;4.77;2.37;;;24.30;93.00;;;;;;4937666;29;20445;-89
2023/07/18 06:42:52;;;;;;;2.60;2.40;;;24.30;93.00;;;;;;4937407;29;20479;-89
2023/07/18 06:45:19;;;;;;;2.40;2.10;;;24.30;93.20;;;;;;4937644;29;20495;-89
2023/07/18 06:47:46;;;;;;;2.20;1.60;;;24.30;93.30;;;;;;4937702;29;20450;-89
2023/07/18 06:50:14;;;;;;;2.50;2.17;;;24.30;93.30;;;;;;4937378;29;20538;-89
2023/07/18 06:52:41;;;;;;;1.90;1.80;;;24.30;93.20;;;;;;4937511;29;20459;-90
2023/07/18 06:55:10;;;;;;;2.20;1.87;;;24.40;93.30;;;;;;4937526;29;20446;-89
2023/07/18 06:57:37;;;;;;;1.87;1.43;;;24.30;93.20;;;;;;4937602;29;20455;-89
2023/07/18 07:00:06;;;;;;;3.43;2.00;;;24.40;93.30;;;;;;4937266;29;21012;-89
2023/07/18 07:02:32;;;;;;;2.70;2.30;;;24.40;93.20;;;;;;4937323;29;20859;-90
2023/07/18 07:04:59;;;;;;;3.00;2.20;;;24.30;93.00;;;;;;4937266;29;20498;-89
2023/07/18 07:07:28;;;;;;;3.87;2.07;;;24.30;93.10;;;;;;4936958;29;20939;-89
2023/07/18 07:09:55;;;;;;;4.80;2.13;;;24.30;93.10;;;;;;4937192;29;20548;-88
2023/07/18 07:12:22;;;;;;;3.60;2.10;;;24.40;93.00;;;;;;4937299;29;20478;-89
2023/07/18 07:14:48;;;;;;;2.57;2.37;;;24.30;93.00;;;;;;4937212;29;20524;-89
2023/07/18 07:17:15;;;;;;;2.00;1.80;;;24.30;93.00;;;;;;4936175;29;20945;-89
2023/07/18 07:19:42;;;;;;;3.80;1.80;;;24.30;93.00;;;;;;4936535;29;20480;-89
2023/07/18 07:22:11;;;;;;;2.40;2.20;;;24.40;93.10;;;;;;4936669;29;20448;-89
2023/07/18 07:24:39;;;;;;;3.20;1.83;;;24.30;93.00;;;;;;4936479;29;20486;-89
2023/07/18 07:27:07;;;;;;;2.60;1.87;;;24.40;93.00;;;;;;4936745;29;20484;-89
2023/07/18 07:29:34;;;;;;;1.70;1.60;;;24.40;93.00;;;;;;4936421;29;20530;-89
2023/07/18 07:32:01;;;;;;;2.07;1.87;;;24.40;92.90;;;;;;4936552;29;20454;-89
2023/07/18 07:34:29;;;;;;;2.57;1.90;;;24.40;93.00;;;;;;4936971;29;20468;-89
2023/07/18 07:36:56;;;;;;;1.90;1.60;;;24.40;92.90;;;;;;4936770;29;20810;-90
2023/07/18 07:39:23;;;;;;;7.40;1.70;;;24.40;93.00;;;;;;4936829;29;20454;-89
2023/07/18 07:41:51;;;;;;;1.97;1.57;;;24.40;92.80;;;;;;4936714;29;20451;-89
2023/07/18 07:44:18;;;;;;;1.60;1.50;;;24.40;93.00;;;;;;4936298;29;20935;-90
2023/07/18 07:46:45;;;;;;;2.40;2.20;;;24.40;93.00;;;;;;4936450;29;20454;-89
2023/07/18 07:49:12;;;;;;;1.83;1.60;;;24.40;93.00;;;;;;4936293;29;20512;-88
2023/07/18 07:51:38;;;;;;;1.70;1.60;;;24.40;92.80;;;;;;4936671;29;20806;-94
2023/07/18 07:54:05;;;;;;;2.10;1.87;;;24.40;92.70;;;;;;4936549;29;20462;-89
2023/07/18 07:56:32;;;;;;;2.23;1.60;;;24.40;92.80;;;;;;4936315;29;20454;-89
2023/07/18 07:59:00;;;;;;;1.60;1.40;;;24.40;92.80;;;;;;4936247;29;20473;-89
2023/07/18 08:01:27;;;;;;;1.73;1.63;;;24.40;92.70;;;;;;4936667;29;20453;-89
2023/07/18 08:03:54;;;;;;;1.80;1.60;;;24.40;92.70;;;;;;4936193;29;20442;-89
2023/07/18 08:06:20;;;;;;;1.83;1.73;;;24.40;92.80;;;;;;4936939;29;20455;-89
2023/07/18 08:08:47;;;;;;;1.50;1.30;;;24.40;92.80;;;;;;4936082;29;20453;-88
2023/07/18 08:11:14;;;;;;;1.90;1.43;;;24.40;92.90;;;;;;4936925;29;20442;-89
2023/07/18 08:13:41;;;;;;;3.47;1.97;;;24.40;92.90;;;;;;4936326;29;21005;-88
2023/07/18 08:16:09;;;;;;;1.50;1.40;;;24.40;93.00;;;;;;4936376;29;20487;-88
2023/07/18 08:18:36;;;;;;;1.93;1.60;;;24.40;93.10;;;;;;4935962;29;20470;-89
2023/07/18 08:21:03;;;;;;;2.13;1.93;;;24.40;93.00;;;;;;4936079;29;20934;-89
2023/07/18 08:23:29;;;;;;;1.87;1.73;;;24.40;93.10;;;;;;4935999;29;20450;-89
2023/07/18 08:25:56;;;;;;;2.27;2.07;;;24.40;93.00;;;;;;4936322;29;20604;-89
2023/07/18 08:28:23;;;;;;;2.20;2.00;;;24.40;93.00;;;;;;4937758;29;20445;-89
2023/07/18 08:30:50;;;;;;;1.53;1.43;;;24.40;93.10;;;;;;4939893;29;20541;-90
2023/07/18 08:33:19;;;;;;;1.40;1.23;;;24.40;93.10;;;;;;4940200;29;20472;-89
2023/07/18 08:35:46;;;;;;;1.43;1.20;;;24.40;93.10;;;;;;4940008;29;20526;-89
2023/07/18 08:38:13;;;;;;;1.60;1.30;;;24.40;93.10;;;;;;4939893;29;20459;-88
2023/07/18 08:40:43;;;;;;;1.53;1.27;;;24.40;93.30;;;;;;4939664;29;20457;-89
2023/07/18 08:43:13;;;;;;;2.13;1.73;;;24.50;93.20;;;;;;4939432;29;20807;-89
2023/07/18 08:45:41;;;;;;;1.57;1.47;;;24.40;93.30;;;;;;4939601;29;20516;-89
2023/07/18 08:48:08;;;;;;;1.57;1.47;;;24.50;93.30;;;;;;4939381;29;20823;-88
2023/07/18 08:50:37;;;;;;;1.43;1.33;;;24.50;93.40;;;;;;4939431;29;20456;-89
2023/07/18 08:53:05;;;;;;;1.50;1.30;;;24.50;93.30;;;;;;4939533;29;20772;-89
2023/07/18 08:55:32;;;;;;;1.83;1.73;;;24.50;93.20;;;;;;4939187;29;20441;-88
2023/07/18 08:58:00;;;;;;;1.90;1.80;;;24.50;93.30;;;;;;4939519;29;20448;-88
2023/07/18 09:00:28;;;;;;;1.70;1.30;;;24.50;93.40;;;;;;4938705;29;20454;-89
2023/07/18 09:02:55;;;;;;;1.60;1.30;;;24.50;93.30;;;;;;4939201;29;20452;-88
2023/07/18 09:05:29;;;;;;;1.73;1.30;;;24.50;93.20;;;;;;4938843;29;20508;-88
2023/07/18 09:07:58;;;;;;;1.53;1.37;;;24.50;93.50;;;;;;4939200;29;20439;-88
2023/07/18 09:10:25;;;;;;;2.80;1.40;;;24.50;93.40;;;;;;4939427;29;20456;-88
2023/07/18 09:12:52;;;;;;;1.70;1.50;;;24.50;93.60;;;;;;4939486;29;20451;-88
2023/07/18 09:15:19;;;;;;;1.40;1.20;;;24.50;93.50;;;;;;4939024;29;20457;-88
2023/07/18 09:17:49;;;;;;;1.80;1.30;;;24.50;93.70;;;;;;4938802;29;20513;-88
2023/07/18 09:20:18;;;;;;;1.57;1.17;;;24.50;93.50;;;;;;4938828;29;20454;-88
2023/07/18 09:22:45;;;;;;;1.50;1.30;;;24.50;93.50;;;;;;4938597;29;20497;-88
2023/07/18 09:25:16;;;;;;;1.60;1.40;;;24.50;93.50;;;;;;4938537;29;20581;-88
2023/07/18 09:27:43;;;;;;;1.83;1.33;;;24.50;93.40;;;;;;4938772;29;20815;-88
2023/07/18 09:30:10;;;;;;;1.67;1.57;;;24.50;93.20;;;;;;4938444;29;20477;-88
2023/07/18 09:32:38;;;;;;;1.30;1.20;;;24.50;93.20;;;;;;4938634;29;20445;-88
2023/07/18 09:35:05;;;;;;;1.70;1.50;;;24.50;93.10;;;;;;4938917;29;20867;-88
2023/07/18 09:37:43;;;;;;;1.50;1.20;;;24.50;93.00;;;;;;4938686;29;20843;-89
2023/07/18 09:40:12;;;;;;;1.27;1.10;;;24.60;93.00;;;;;;4938253;29;20803;-89
2023/07/18 09:42:42;;;;;;;2.13;1.20;;;24.50;93.00;;;;;;4938535;29;20473;-88
2023/07/18 09:45:10;;;;;;;1.30;1.20;;;24.50;93.00;;;;;;4938800;29;20495;-87
2023/07/18 09:47:39;;;;;;;1.93;1.37;;;24.50;92.90;;;;;;4938334;29;20455;-89
2023/07/18 09:50:07;;;;;;;1.80;1.33;;;24.50;93.00;;;;;;4938480;29;20453;-88
2023/07/18 09:52:36;;;;;;;1.30;1.10;;;24.50;93.00;;;;;;4938060;29;20453;-90
2023/07/18 09:55:07;;;;;;;1.20;1.03;;;24.60;92.90;;;;;;4938565;29;20457;-88
2023/07/18 09:57:35;;;;;;;1.80;1.40;;;24.60;92.90;;;;;;4938367;29;20926;-89
2023/07/18 10:00:05;;;;;;;1.40;1.30;;;24.50;93.00;;;;;;4938435;29;20445;-88
2023/07/18 10:02:34;;;;;;;1.43;1.33;;;24.50;93.10;;;;;;4938423;29;20445;-88
2023/07/18 10:05:02;;;;;;;2.40;1.10;;;24.60;93.30;;;;;;4938182;29;20519;-88
2023/07/18 10:07:32;;;;;;;1.50;1.40;;;24.50;93.20;;;;;;4938201;29;20453;-88
2023/07/18 10:10:00;;;;;;;1.60;1.27;;;24.50;93.20;;;;;;4938538;29;20470;-87
2023/07/18 10:12:27;;;;;;;1.43;1.10;;;24.60;93.20;;;;;;4938072;29;20459;-88
2023/07/18 10:14:57;;;;;;;1.20;1.10;;;24.50;93.10;;;;;;4938610;29;20445;-87
2023/07/18 10:17:36;;;;;;;1.33;1.23;;;24.60;93.20;;;;;;4937696;29;20454;-88
2023/07/18 10:20:06;;;;;;;2.37;1.13;;;24.50;93.00;;;;;;4938350;29;20438;-89
2023/07/18 10:22:33;;;;;;;1.73;1.40;;;24.60;93.10;;;;;;4937939;29;20442;-88
2023/07/18 10:25:04;;;;;;;1.53;1.30;;;24.60;93.00;;;;;;4937461;29;20515;-88
2023/07/18 10:27:39;;;;;;;1.10;1.00;;;24.50;93.00;;;;;;4937821;29;20468;-88
2023/07/18 10:30:08;;;;;;;1.20;1.10;;;24.60;92.90;;;;;;4937899;29;20533;-88
2023/07/18 10:32:38;;;;;;;1.70;1.40;;;24.60;92.80;;;;;;4937715;29;20957;-88
2023/07/18 10:35:09;;;;;;;1.30;1.20;;;24.60;92.90;;;;;;4937661;29;20443;-88
2023/07/18 10:37:37;;;;;;;2.37;1.10;;;24.60;93.00;;;;;;4937834;29;20442;-88
2023/07/18 10:40:06;;;;;;;1.50;1.40;;;24.60;92.90;;;;;;4937038;29;20452;-88
2023/07/18 10:42:34;;;;;;;1.40;1.20;;;24.60;93.00;;;;;;4937005;29;20839;-88
2023/07/18 10:45:04;;;;;;;1.73;1.50;;;24.60;93.10;;;;;;4937271;29;20489;-87
2023/07/18 10:47:31;;;;;;;1.30;1.20;;;24.60;93.10;;;;;;4937179;29;20446;-87
2023/07/18 10:49:59;;;;;;;1.50;1.40;;;24.60;93.20;;;;;;4937325;29;20534;-88
2023/07/18 10:52:27;;;;;;;1.20;0.90;;;24.60;93.10;;;;;;4936866;29;20521;-88
2023/07/18 10:54:55;;;;;;;1.60;1.40;;;24.60;93.10;;;;;;4937202;29;20505;-92
2023/07/18 10:57:30;;;;;;;2.10;1.40;;;24.60;93.00;;;;;;4937139;29;20976;-89
2023/07/18 10:59:58;;;;;;;1.40;1.30;;;24.60;93.00;;;;;;4937566;29;20453;-89
2023/07/18 11:02:26;;;;;;;1.20;1.10;;;24.60;93.10;;;;;;4937596;29;20507;-88
2023/07/18 11:04:53;;;;;;;1.20;1.10;;;24.60;93.00;;;;;;4937042;29;20930;-88
2023/07/18 11:07:33;;;;;;;1.40;1.23;;;24.60;93.00;;;;;;4936938;29;20452;-89
2023/07/18 11:10:00;;;;;;;1.60;1.20;;;24.60;93.10;;;;;;4937330;29;20925;-88
2023/07/18 11:12:39;;;;;;;1.40;1.13;;;24.50;93.40;;;;;;5111517;27;20540;-87
2023/07/18 11:15:07;;;;;;;1.20;1.00;;;24.60;93.20;;;;;;5111608;28;20523;-88
2023/07/18 11:17:35;;;;;;;1.30;1.10;;;24.60;93.10;;;;;;5111386;28;20455;-88
2023/07/18 11:20:04;;;;;;;1.60;1.10;;;24.60;93.10;;;;;;5111390;28;20799;-89
2023/07/18 11:22:32;;;;;;;1.40;1.03;;;24.60;93.10;;;;;;5111320;28;20488;-87
2023/07/18 11:25:00;;;;;;;1.30;1.07;;;24.60;93.20;;;;;;5110955;28;20482;-86
2023/07/18 11:27:28;;;;;;;1.53;0.90;;;24.60;92.90;;;;;;5111075;28;20436;-86
2023/07/18 11:29:57;;;;;;;1.30;1.10;;;24.60;92.80;;;;;;5111182;28;20533;-87
2023/07/18 11:32:37;;;;;;;1.73;1.20;;;24.60;92.80;;;;;;5111096;28;20570;-87
2023/07/18 11:35:06;;;;;;;1.70;1.60;;;24.60;92.80;;;;;;5110915;28;20437;-86
2023/07/18 11:37:33;;;;;;;1.30;1.20;;;24.60;92.70;;;;;;5111117;28;20486;-87
2023/07/18 11:40:00;;;;;;;1.10;1.00;;;24.60;92.80;;;;;;5110968;28;20509;-87
2023/07/18 11:42:42;;;;;;;1.33;1.23;;;24.60;92.90;;;;;;5110760;28;20526;-87
2023/07/18 11:45:11;;;;;;;1.20;1.03;;;24.60;92.90;;;;;;5110981;28;20526;-87
2023/07/18 11:47:44;;;;;;;1.40;1.20;;;24.60;92.90;;;;;;5123574;28;20464;-87
2023/07/18 11:50:13;;;;;;;1.60;1.40;;;24.60;93.40;;;;;;5112697;28;20465;-88
2023/07/18 11:52:41;;;;;;;1.70;1.60;;;24.60;93.10;;;;;;5110636;28;20570;-87
2023/07/18 11:55:08;;;;;;;1.77;1.20;;;24.60;93.00;;;;;;5110655;28;20472;-87
2023/07/18 11:57:35;;;;;;;2.17;1.23;;;24.60;93.00;;;;;;5110693;28;20535;-86
2023/07/18 12:00:04;;;;;;;1.60;1.20;;;24.60;93.00;;;;;;5110547;28;20528;-87
2023/07/18 12:02:32;;;;;;;1.90;1.23;;;24.60;93.00;;;;;;5110396;28;20471;-87
2023/07/18 12:04:59;;;;;;;2.70;1.20;;;24.60;93.00;;;;;;5110395;28;20443;-87
2023/07/18 12:07:26;;;;;;;1.30;1.03;;;24.60;92.90;;;;;;5110422;28;20868;-87
2023/07/18 12:09:53;;;;;;;3.83;1.23;;;24.60;93.00;;;;;;5110456;28;20855;-86
2023/07/18 12:12:21;;;;;;;2.87;1.03;;;24.60;93.10;;;;;;5110095;27;20495;-86
2023/07/18 12:14:48;;;;;;;1.40;1.23;;;24.60;93.10;;;;;;5110089;28;20439;-87
2023/07/18 12:17:14;;;;;;;1.70;1.20;;;24.60;93.20;;;;;;5110175;28;20442;-88
2023/07/18 12:19:43;;;;;;;1.30;1.20;;;24.60;93.20;;;;;;5110316;28;20521;-88
2023/07/18 12:22:10;;;;;;;1.23;1.10;;;24.60;93.20;;;;;;5106385;28;20440;-87
2023/07/18 12:24:37;;;;;;;1.20;1.10;;;24.60;93.20;;;;;;5096471;28;20435;-86
2023/07/18 12:27:05;;;;;;;1.70;1.30;;;24.60;93.20;;;;;;5096198;28;20922;-86
2023/07/18 12:29:32;;;;;;;1.30;1.20;;;24.70;93.20;;;;;;5096443;28;20519;-88
2023/07/18 12:31:59;;;;;;;1.20;1.10;;;24.60;93.50;;;;;;5096116;28;20480;-87
2023/07/18 12:34:27;;;;;;;1.40;1.27;;;24.70;93.20;;;;;;5096040;28;20449;-86
2023/07/18 12:36:55;;;;;;;1.17;1.07;;;24.70;93.30;;;;;;5095692;28;20476;-87
2023/07/18 12:39:22;;;;;;;1.30;1.00;;;24.60;93.20;;;;;;5095803;28;20535;-86
2023/07/18 12:41:49;;;;;;;1.37;1.20;;;24.60;93.20;;;;;;5095879;28;20948;-88
2023/07/18 12:44:19;;;;;;;1.60;1.37;;;24.60;93.20;;;;;;5096137;28;20529;-87
2023/07/18 12:46:46;;;;;;;1.13;1.00;;;24.60;93.10;;;;;;5096100;28;20488;-86
2023/07/18 12:49:14;;;;;;;1.20;1.00;;;24.70;93.30;;;;;;5097486;28;20465;-92
2023/07/18 12:51:41;;;;;;;1.40;1.10;;;24.60;93.30;;;;;;5096134;28;20484;-89